createdAt,value
2022-12-31T00:00:28.196Z,44.89
2022-12-31T00:05:51.840Z,45.01
2022-12-31T00:10:55.620Z,44.98
2022-12-31T00:15:59.081Z,44.95
2022-12-31T00:21:03.161Z,44.88
2022-12-31T00:26:06.707Z,45.14
2022-12-31T00:31:10.225Z,45.15
2022-12-31T00:36:13.788Z,45.13
2022-12-31T00:41:17.531Z,45.14
2022-12-31T00:46:21.302Z,45.07
2022-12-31T00:51:27.306Z,44.92
2022-12-31T00:56:31.143Z,44.87
2022-12-31T01:01:34.752Z,44.84
2022-12-31T01:06:38.334Z,44.90
2022-12-31T01:11:41.891Z,44.83
2022-12-31T01:16:45.406Z,44.68
2022-12-31T01:21:49.019Z,44.94
2022-12-31T01:26:52.507Z,45.00
2022-12-31T01:31:55.982Z,44.80
2022-12-31T01:36:59.463Z,45.04
2022-12-31T01:42:02.975Z,44.82
2022-12-31T01:47:06.529Z,44.96
2022-12-31T01:52:10.145Z,44.84
2022-12-31T01:57:13.667Z,44.87
2022-12-31T02:02:17.276Z,44.87
2022-12-31T02:07:20.895Z,44.85
2022-12-31T02:12:24.372Z,44.67
2022-12-31T02:17:27.881Z,44.77
2022-12-31T02:22:31.391Z,44.65
2022-12-31T02:27:35.586Z,44.63
2022-12-31T02:32:39.279Z,44.55
2022-12-31T02:37:42.806Z,44.64
2022-12-31T02:42:51.528Z,44.61
2022-12-31T02:47:58.587Z,44.69
2022-12-31T02:53:02.094Z,44.54
2022-12-31T02:58:05.571Z,44.66
2022-12-31T03:03:09.066Z,44.66
2022-12-31T03:08:12.569Z,44.70
2022-12-31T03:13:16.075Z,44.69
2022-12-31T03:18:39.537Z,44.81
2022-12-31T03:23:43.074Z,44.76
2022-12-31T03:28:48.205Z,44.89
2022-12-31T03:33:51.742Z,44.81
2022-12-31T03:38:55.250Z,44.94
2022-12-31T03:43:58.737Z,44.90
2022-12-31T03:49:02.252Z,44.88
2022-12-31T03:54:05.734Z,44.90
2022-12-31T03:59:09.263Z,44.92
2022-12-31T04:04:12.751Z,44.95
2022-12-31T04:09:16.431Z,45.05
2022-12-31T04:14:20.118Z,44.91
2022-12-31T04:19:23.665Z,45.16
2022-12-31T04:24:27.259Z,45.22
2022-12-31T04:29:30.747Z,45.40
2022-12-31T04:34:34.229Z,45.28
2022-12-31T04:39:37.739Z,45.32
2022-12-31T04:44:41.235Z,45.32
2022-12-31T04:49:44.768Z,45.39
2022-12-31T04:54:48.390Z,45.62
2022-12-31T04:59:51.934Z,45.33
2022-12-31T05:04:55.450Z,45.39
2022-12-31T05:09:58.928Z,45.34
2022-12-31T05:15:02.602Z,45.30
2022-12-31T05:20:06.098Z,45.42
2022-12-31T05:25:09.582Z,45.32
2022-12-31T05:30:13.053Z,45.45
2022-12-31T05:35:16.570Z,45.54
2022-12-31T05:40:20.131Z,45.37
2022-12-31T05:45:30.158Z,45.40
2022-12-31T05:50:34.201Z,45.65
2022-12-31T05:55:37.748Z,45.65
2022-12-31T06:00:41.221Z,45.58
2022-12-31T06:05:45.809Z,45.73
2022-12-31T06:10:49.314Z,45.83
2022-12-31T06:15:52.862Z,46.01
2022-12-31T06:20:56.373Z,45.95
2022-12-31T06:25:59.877Z,46.02
2022-12-31T06:31:03.426Z,45.94
2022-12-31T06:36:07.078Z,45.96
2022-12-31T06:41:11.242Z,45.73
2022-12-31T06:46:14.775Z,45.84
2022-12-31T06:51:18.517Z,45.84
2022-12-31T06:56:26.551Z,45.82
2022-12-31T07:01:33.273Z,45.85
2022-12-31T07:06:36.943Z,45.87
2022-12-31T07:11:40.426Z,45.81
2022-12-31T07:16:43.922Z,46.09
2022-12-31T07:21:47.444Z,45.94
2022-12-31T07:26:56.145Z,46.25
2022-12-31T07:32:00.453Z,46.23
2022-12-31T07:37:03.973Z,46.11
2022-12-31T07:42:07.481Z,46.36
2022-12-31T07:47:11.042Z,46.36
2022-12-31T07:52:14.570Z,46.72
2022-12-31T07:57:18.107Z,48.02
2022-12-31T08:02:21.696Z,47.19
2022-12-31T08:07:25.327Z,47.18
2022-12-31T08:12:28.968Z,46.88
2022-12-31T08:17:32.604Z,46.52
2022-12-31T08:22:36.136Z,46.27
2022-12-31T08:27:40.498Z,46.86
2022-12-31T08:32:44.007Z,47.44
2022-12-31T08:37:47.544Z,48.23
2022-12-31T08:42:51.054Z,48.18
2022-12-31T08:47:59.703Z,49.10
2022-12-31T08:53:03.870Z,48.27
2022-12-31T08:58:07.358Z,49.58
2022-12-31T09:03:10.865Z,50.05
2022-12-31T09:08:14.500Z,49.59
2022-12-31T09:13:18.067Z,49.58
2022-12-31T09:18:21.583Z,49.51
2022-12-31T09:23:25.130Z,49.05
2022-12-31T09:28:28.658Z,49.02
2022-12-31T09:33:32.179Z,48.54
2022-12-31T09:38:35.669Z,48.56
2022-12-31T09:43:39.283Z,48.94
2022-12-31T09:48:42.796Z,48.89
2022-12-31T09:53:46.296Z,48.62
2022-12-31T09:58:49.793Z,48.43
2022-12-31T10:03:53.317Z,48.58
2022-12-31T10:08:56.885Z,48.38
2022-12-31T10:14:00.390Z,48.46
2022-12-31T10:19:03.909Z,48.46
2022-12-31T10:24:07.550Z,48.35
2022-12-31T10:29:11.024Z,48.47
2022-12-31T10:34:14.546Z,48.68
2022-12-31T10:39:24.076Z,49.16
2022-12-31T10:44:28.140Z,49.89
2022-12-31T10:49:31.702Z,48.69
2022-12-31T10:54:35.172Z,48.84
2022-12-31T10:59:38.703Z,48.65
2022-12-31T11:04:42.195Z,49.49
2022-12-31T11:09:45.693Z,49.54
2022-12-31T11:14:49.212Z,49.10
2022-12-31T11:19:52.738Z,49.15
2022-12-31T11:24:56.263Z,49.24
2022-12-31T11:29:59.728Z,49.31
2022-12-31T11:35:03.334Z,49.52
2022-12-31T11:40:06.902Z,49.42
2022-12-31T11:45:10.432Z,49.48
2022-12-31T11:50:15.279Z,49.21
2022-12-31T11:55:18.919Z,49.30
2022-12-31T12:00:22.598Z,49.39
2022-12-31T12:05:26.088Z,49.16
2022-12-31T12:10:35.997Z,48.98
2022-12-31T12:15:40.282Z,49.26
2022-12-31T12:20:43.981Z,49.21
2022-12-31T12:25:47.504Z,48.96
2022-12-31T12:30:51.092Z,49.07
2022-12-31T12:35:54.576Z,49.20
2022-12-31T12:40:58.320Z,49.17
2022-12-31T12:46:01.819Z,49.27
2022-12-31T12:51:05.479Z,49.33
2022-12-31T12:56:09.022Z,49.39
2022-12-31T13:01:12.653Z,49.44
2022-12-31T13:06:16.370Z,49.17
2022-12-31T13:11:21.743Z,49.13
2022-12-31T13:16:25.474Z,49.27
2022-12-31T13:21:29.181Z,49.45
2022-12-31T13:26:32.771Z,49.12
2022-12-31T13:31:36.537Z,49.41
2022-12-31T13:36:40.191Z,50.28
2022-12-31T13:41:45.681Z,50.03
2022-12-31T13:46:49.266Z,50.02
2022-12-31T13:51:52.809Z,50.06
2022-12-31T13:56:56.338Z,49.69
2022-12-31T14:01:59.944Z,49.70
2022-12-31T14:07:03.751Z,49.72
2022-12-31T14:12:07.422Z,50.13
2022-12-31T14:17:10.889Z,50.84
2022-12-31T14:22:14.348Z,51.29
2022-12-31T14:27:17.851Z,52.01
2022-12-31T14:32:22.407Z,52.34
2022-12-31T14:37:25.893Z,52.36
2022-12-31T14:42:29.383Z,51.75
2022-12-31T14:47:32.894Z,50.82
2022-12-31T14:52:36.372Z,50.26
2022-12-31T14:58:09.620Z,50.40
2022-12-31T15:03:03.364Z,50.91
2022-12-31T15:08:07.024Z,50.51
2022-12-31T15:13:10.514Z,55.03
2022-12-31T15:18:14.025Z,51.99
2022-12-31T15:23:18.605Z,53.60
2022-12-31T15:28:22.215Z,54.07
2022-12-31T15:33:25.762Z,53.98
2022-12-31T15:38:29.256Z,53.68
2022-12-31T15:43:32.771Z,53.57
2022-12-31T15:48:36.278Z,53.18
2022-12-31T15:53:39.744Z,52.72
2022-12-31T15:58:43.280Z,53.16
2022-12-31T16:03:46.867Z,52.78
2022-12-31T16:08:50.400Z,52.42
2022-12-31T16:13:53.924Z,52.22
2022-12-31T16:18:57.560Z,51.65
2022-12-31T16:24:01.178Z,51.93
2022-12-31T16:29:05.392Z,51.68
2022-12-31T16:34:08.945Z,51.81
2022-12-31T16:39:12.462Z,51.87
2022-12-31T16:44:15.965Z,51.68
2022-12-31T16:49:19.476Z,51.62
2022-12-31T16:54:23.019Z,51.55
2022-12-31T16:59:29.300Z,51.43
2022-12-31T17:04:40.004Z,51.32
2022-12-31T17:09:49.752Z,51.23
2022-12-31T17:14:53.294Z,50.98
2022-12-31T17:19:56.807Z,50.60
2022-12-31T17:25:00.803Z,50.71
2022-12-31T17:30:04.484Z,50.48
2022-12-31T17:35:08.019Z,49.89
2022-12-31T17:40:49.412Z,49.91
2022-12-31T17:45:34.979Z,50.58
2022-12-31T17:50:38.472Z,50.02
2022-12-31T17:55:42.415Z,50.22
2022-12-31T18:00:45.942Z,49.81
2022-12-31T18:05:49.549Z,49.54
2022-12-31T18:10:53.054Z,49.34
2022-12-31T18:15:56.624Z,49.18
2022-12-31T18:21:00.340Z,49.19
2022-12-31T18:26:04.184Z,49.06
2022-12-31T18:31:07.777Z,49.01
2022-12-31T18:36:11.502Z,48.99
2022-12-31T18:41:15.025Z,48.75
2022-12-31T18:46:18.569Z,48.78
2022-12-31T18:51:31.029Z,48.69
2022-12-31T18:56:35.583Z,48.76
2022-12-31T19:01:39.242Z,48.84
2022-12-31T19:06:42.838Z,48.67
2022-12-31T19:11:46.758Z,49.05
2022-12-31T19:16:50.282Z,49.20
2022-12-31T19:21:53.790Z,49.26
2022-12-31T19:26:57.303Z,49.08
2022-12-31T19:32:02.343Z,48.98
2022-12-31T19:37:06.001Z,48.92
2022-12-31T19:42:09.567Z,49.35
2022-12-31T19:47:13.046Z,49.08
2022-12-31T19:52:16.627Z,49.80
2022-12-31T19:57:20.124Z,49.98
2022-12-31T20:02:23.693Z,49.50
2022-12-31T20:07:27.482Z,49.75
2022-12-31T20:12:31.078Z,51.47
2022-12-31T20:17:35.143Z,52.08
2022-12-31T20:22:38.667Z,52.24
2022-12-31T20:27:42.155Z,51.36
2022-12-31T20:32:46.665Z,51.63
2022-12-31T20:37:50.239Z,51.21
2022-12-31T20:42:53.755Z,51.11
2022-12-31T20:47:57.279Z,51.44
2022-12-31T20:53:00.824Z,50.86
2022-12-31T20:58:05.585Z,50.99
2022-12-31T21:03:30.045Z,50.76
2022-12-31T21:08:35.019Z,50.75
2022-12-31T21:13:38.927Z,50.81
2022-12-31T21:18:42.415Z,50.63
2022-12-31T21:23:46.111Z,50.55
2022-12-31T21:28:49.612Z,50.40
2022-12-31T21:33:53.122Z,50.42
2022-12-31T21:38:56.673Z,50.54
2022-12-31T21:44:00.275Z,49.97
2022-12-31T21:49:03.779Z,51.77
2022-12-31T21:54:27.241Z,52.87
2022-12-31T22:00:03.173Z,53.10
2022-12-31T22:05:18.633Z,54.24
2022-12-31T22:10:25.127Z,53.74
2022-12-31T22:15:28.793Z,54.45
2022-12-31T22:20:32.288Z,54.53
2022-12-31T22:25:35.986Z,53.60
2022-12-31T22:30:39.494Z,53.68
2022-12-31T22:35:43.042Z,50.87
2022-12-31T22:40:46.562Z,47.28
2022-12-31T22:45:50.197Z,46.90
2022-12-31T22:50:53.673Z,46.75
2022-12-31T22:55:57.195Z,46.78
2022-12-31T23:01:00.713Z,46.97
2022-12-31T23:06:04.489Z,47.03
2022-12-31T23:11:09.667Z,47.89
2022-12-31T23:16:31.213Z,47.02
2022-12-31T23:21:52.755Z,47.02
2022-12-31T23:26:56.287Z,47.02
2022-12-31T23:31:59.832Z,47.12
2022-12-31T23:37:04.363Z,47.09
2022-12-31T23:42:07.908Z,46.96
2022-12-31T23:47:11.524Z,47.13
2022-12-31T23:52:15.123Z,47.18
2022-12-31T23:57:18.824Z,47.26
